sensor_id;sensor_type;location;lat;lon;timestamp;pressure;altitude;pressure_sealevel;temperature;humidity
54248;BME280;40161;39.768;2.722;2023-03-12T00:00:51;101262.09;;;17.94;62.56
54248;BME280;40161;39.768;2.722;2023-03-12T00:03:16;101270.03;;;17.92;62.08
54248;BME280;40161;39.768;2.722;2023-03-12T00:05:43;101254.19;;;17.86;62.57
54248;BME280;40161;39.768;2.722;2023-03-12T00:08:09;101260.97;;;17.81;63.06
54248;BME280;40161;39.768;2.722;2023-03-12T00:10:37;101234.84;;;17.61;62.36
54248;BME280;40161;39.768;2.722;2023-03-12T00:13:03;101265.69;;;17.88;61.77
54248;BME280;40161;39.768;2.722;2023-03-12T00:15:29;101281.94;;;17.96;61.70
54248;BME280;40161;39.768;2.722;2023-03-12T00:17:54;101274.81;;;17.88;62.72
54248;BME280;40161;39.768;2.722;2023-03-12T00:20:20;101262.56;;;17.78;61.31
54248;BME280;40161;39.768;2.722;2023-03-12T00:22:48;101283.13;;;17.95;61.12
54248;BME280;40161;39.768;2.722;2023-03-12T00:25:15;101279.53;;;17.95;61.07
54248;BME280;40161;39.768;2.722;2023-03-12T00:27:42;101295.78;;;18.07;60.71
54248;BME280;40161;39.768;2.722;2023-03-12T00:30:08;101291.78;;;18.08;61.21
54248;BME280;40161;39.768;2.722;2023-03-12T00:32:35;101293.41;;;17.98;61.88
54248;BME280;40161;39.768;2.722;2023-03-12T00:35:02;101284.66;;;18.07;60.78
54248;BME280;40161;39.768;2.722;2023-03-12T00:37:28;101285.47;;;18.00;61.59
54248;BME280;40161;39.768;2.722;2023-03-12T00:39:54;101269.69;;;17.83;62.38
54248;BME280;40161;39.768;2.722;2023-03-12T00:42:19;101291.47;;;17.88;61.69
54248;BME280;40161;39.768;2.722;2023-03-12T00:44:45;101284.31;;;17.94;60.54
54248;BME280;40161;39.768;2.722;2023-03-12T00:47:11;101236.78;;;17.74;61.16
54248;BME280;40161;39.768;2.722;2023-03-12T00:49:37;101279.94;;;17.97;61.47
54248;BME280;40161;39.768;2.722;2023-03-12T00:52:03;101287.03;;;18.05;61.14
54248;BME280;40161;39.768;2.722;2023-03-12T00:54:29;101276.38;;;17.96;61.98
54248;BME280;40161;39.768;2.722;2023-03-12T00:56:55;101307.69;;;18.00;61.92
54248;BME280;40161;39.768;2.722;2023-03-12T00:59:20;101279.63;;;17.77;61.82
54248;BME280;40161;39.768;2.722;2023-03-12T01:01:46;101313.69;;;17.88;63.12
54248;BME280;40161;39.768;2.722;2023-03-12T01:04:12;101296.69;;;17.79;63.15
54248;BME280;40161;39.768;2.722;2023-03-12T01:06:37;101304.59;;;17.70;62.86
54248;BME280;40161;39.768;2.722;2023-03-12T01:09:05;101313.34;;;17.79;61.94
54248;BME280;40161;39.768;2.722;2023-03-12T01:11:32;101307.78;;;17.83;62.76
54248;BME280;40161;39.768;2.722;2023-03-12T01:13:58;101262.22;;;17.55;62.52
54248;BME280;40161;39.768;2.722;2023-03-12T01:16:25;101302.19;;;17.75;62.79
54248;BME280;40161;39.768;2.722;2023-03-12T01:18:53;101313.31;;;17.72;63.21
54248;BME280;40161;39.768;2.722;2023-03-12T01:21:19;101311.75;;;17.64;63.96
54248;BME280;40161;39.768;2.722;2023-03-12T01:23:44;101309.75;;;17.64;64.02
54248;BME280;40161;39.768;2.722;2023-03-12T01:26:10;101310.56;;;17.61;64.56
54248;BME280;40161;39.768;2.722;2023-03-12T01:28:36;101308.97;;;17.60;64.39
54248;BME280;40161;39.768;2.722;2023-03-12T01:31:09;101318.09;;;17.61;65.06
54248;BME280;40161;39.768;2.722;2023-03-12T01:33:35;101307.81;;;17.47;64.67
54248;BME280;40161;39.768;2.722;2023-03-12T01:36:01;101312.59;;;17.43;65.32
54248;BME280;40161;39.768;2.722;2023-03-12T01:38:27;101314.16;;;17.44;65.59
54248;BME280;40161;39.768;2.722;2023-03-12T01:40:52;101297.16;;;17.27;65.40
54248;BME280;40161;39.768;2.722;2023-03-12T01:43:28;101267.06;;;16.90;66.74
54248;BME280;40161;39.768;2.722;2023-03-12T01:51:28;101223.91;;;16.75;66.78
54248;BME280;40161;39.768;2.722;2023-03-12T01:53:58;101292.00;;;17.12;67.08
54248;BME280;40161;39.768;2.722;2023-03-12T01:56:27;101302.69;;;17.20;66.43
54248;BME280;40161;39.768;2.722;2023-03-12T01:58:57;101286.84;;;17.03;67.37
54248;BME280;40161;39.768;2.722;2023-03-12T02:01:25;101238.50;;;16.57;68.24
54248;BME280;40161;39.768;2.722;2023-03-12T02:03:52;101301.13;;;17.05;67.85
54248;BME280;40161;39.768;2.722;2023-03-12T02:06:29;101274.59;;;16.93;67.76
54248;BME280;40161;39.768;2.722;2023-03-12T02:09:00;101309.03;;;16.99;68.23
54248;BME280;40161;39.768;2.722;2023-03-12T02:11:26;101317.34;;;16.96;67.99
54248;BME280;40161;39.768;2.722;2023-03-12T02:13:52;101298.34;;;16.94;68.19
54248;BME280;40161;39.768;2.722;2023-03-12T02:16:17;101312.59;;;16.89;68.85
54248;BME280;40161;39.768;2.722;2023-03-12T02:18:44;101313.78;;;16.88;69.73
54248;BME280;40161;39.768;2.722;2023-03-12T02:21:24;101274.94;;;16.67;69.69
54248;BME280;40161;39.768;2.722;2023-03-12T02:26:28;101300.72;;;16.85;68.94
54248;BME280;40161;39.768;2.722;2023-03-12T02:28:55;101315.38;;;16.89;69.13
54248;BME280;40161;39.768;2.722;2023-03-12T02:31:24;101306.25;;;16.81;69.56
54248;BME280;40161;39.768;2.722;2023-03-12T02:33:50;101307.47;;;16.84;69.62
54248;BME280;40161;39.768;2.722;2023-03-12T02:36:18;101302.28;;;16.75;69.70
54248;BME280;40161;39.768;2.722;2023-03-12T02:38:46;101301.44;;;16.60;70.96
54248;BME280;40161;39.768;2.722;2023-03-12T02:41:26;101311.72;;;16.38;71.24
54248;BME280;40161;39.768;2.722;2023-03-12T02:44:18;101312.09;;;16.44;71.61
54248;BME280;40161;39.768;2.722;2023-03-12T02:46:46;101258.63;;;16.11;71.77
54248;BME280;40161;39.768;2.722;2023-03-12T02:49:14;101321.25;;;16.59;71.40
54248;BME280;40161;39.768;2.722;2023-03-12T02:51:41;101305.03;;;16.65;71.58
54248;BME280;40161;39.768;2.722;2023-03-12T02:54:07;101308.59;;;16.69;70.71
54248;BME280;40161;39.768;2.722;2023-03-12T02:56:33;101297.09;;;16.52;70.59
54248;BME280;40161;39.768;2.722;2023-03-12T02:59:00;101308.50;;;16.33;72.52
54248;BME280;40161;39.768;2.722;2023-03-12T03:01:26;101310.47;;;16.29;73.49
54248;BME280;40161;39.768;2.722;2023-03-12T03:03:51;101314.50;;;16.46;72.60
54248;BME280;40161;39.768;2.722;2023-03-12T03:06:18;101303.00;;;16.44;72.56
54248;BME280;40161;39.768;2.722;2023-03-12T03:08:44;101305.78;;;16.47;71.30
54248;BME280;40161;39.768;2.722;2023-03-12T03:11:10;101318.44;;;16.45;71.43
54248;BME280;40161;39.768;2.722;2023-03-12T03:13:36;101320.00;;;16.35;72.35
54248;BME280;40161;39.768;2.722;2023-03-12T03:16:02;101334.66;;;16.43;72.79
54248;BME280;40161;39.768;2.722;2023-03-12T03:18:29;101307.72;;;16.32;73.14
54248;BME280;40161;39.768;2.722;2023-03-12T03:23:21;101330.63;;;16.22;73.63
54248;BME280;40161;39.768;2.722;2023-03-12T03:25:47;101336.97;;;16.23;73.84
54248;BME280;40161;39.768;2.722;2023-03-12T03:28:12;101336.19;;;16.29;74.42
54248;BME280;40161;39.768;2.722;2023-03-12T03:30:38;101336.59;;;16.28;73.62
54248;BME280;40161;39.768;2.722;2023-03-12T03:33:03;101337.00;;;16.30;73.80
54248;BME280;40161;39.768;2.722;2023-03-12T03:35:29;101352.38;;;16.20;74.58
54248;BME280;40161;39.768;2.722;2023-03-12T03:37:55;101356.66;;;16.07;74.81
54248;BME280;40161;39.768;2.722;2023-03-12T03:40:20;101357.44;;;15.97;75.75
54248;BME280;40161;39.768;2.722;2023-03-12T03:42:46;101317.38;;;15.76;75.47
54248;BME280;40161;39.768;2.722;2023-03-12T03:45:11;101360.22;;;16.04;75.74
54248;BME280;40161;39.768;2.722;2023-03-12T03:47:37;101369.75;;;16.13;74.67
54248;BME280;40161;39.768;2.722;2023-03-12T03:50:04;101370.84;;;15.91;76.67
54248;BME280;40161;39.768;2.722;2023-03-12T03:52:30;101356.19;;;15.87;76.29
54248;BME280;40161;39.768;2.722;2023-03-12T03:54:57;101362.91;;;15.93;76.27
54248;BME280;40161;39.768;2.722;2023-03-12T03:57:24;101353.00;;;15.85;76.11
54248;BME280;40161;39.768;2.722;2023-03-12T03:59:50;101347.53;;;15.99;75.91
54248;BME280;40161;39.768;2.722;2023-03-12T04:02:16;101365.31;;;15.95;75.83
54248;BME280;40161;39.768;2.722;2023-03-12T04:04:42;101357.06;;;16.02;76.15
54248;BME280;40161;39.768;2.722;2023-03-12T04:07:08;101358.28;;;16.11;75.55
54248;BME280;40161;39.768;2.722;2023-03-12T04:09:33;101350.00;;;16.15;75.39
54248;BME280;40161;39.768;2.722;2023-03-12T04:11:59;101377.31;;;16.27;74.83
54248;BME280;40161;39.768;2.722;2023-03-12T04:14:25;101372.53;;;16.21;75.60
54248;BME280;40161;39.768;2.722;2023-03-12T04:16:50;101380.50;;;16.26;74.64
54248;BME280;40161;39.768;2.722;2023-03-12T04:19:16;101378.47;;;16.12;75.22
54248;BME280;40161;39.768;2.722;2023-03-12T04:21:41;101378.78;;;16.03;75.61
54248;BME280;40161;39.768;2.722;2023-03-12T04:24:13;101382.69;;;15.88;76.46
54248;BME280;40161;39.768;2.722;2023-03-12T04:26:38;101412.00;;;16.03;76.87
54248;BME280;40161;39.768;2.722;2023-03-12T04:29:04;101379.13;;;15.91;76.29
54248;BME280;40161;39.768;2.722;2023-03-12T04:31:29;101402.94;;;16.06;76.33
54248;BME280;40161;39.768;2.722;2023-03-12T04:33:55;101408.09;;;16.08;76.34
54248;BME280;40161;39.768;2.722;2023-03-12T04:36:20;101405.34;;;16.08;76.78
54248;BME280;40161;39.768;2.722;2023-03-12T04:38:46;101421.56;;;16.13;76.59
54248;BME280;40161;39.768;2.722;2023-03-12T04:41:13;101317.19;;;15.51;75.53
54248;BME280;40161;39.768;2.722;2023-03-12T04:43:39;101413.44;;;15.79;77.91
54248;BME280;40161;39.768;2.722;2023-03-12T04:46:05;101385.63;;;15.61;78.00
54248;BME280;40161;39.768;2.722;2023-03-12T04:48:32;101428.91;;;15.84;78.15
54248;BME280;40161;39.768;2.722;2023-03-12T04:50:57;101424.63;;;15.94;78.08
54248;BME280;40161;39.768;2.722;2023-03-12T04:53:23;101423.44;;;15.91;77.57
54248;BME280;40161;39.768;2.722;2023-03-12T04:55:50;101438.03;;;15.88;78.18
54248;BME280;40161;39.768;2.722;2023-03-12T04:58:16;101441.06;;;15.72;79.26
54248;BME280;40161;39.768;2.722;2023-03-12T05:00:41;101439.19;;;15.83;78.55
54248;BME280;40161;39.768;2.722;2023-03-12T05:03:07;101433.63;;;15.80;78.62
54248;BME280;40161;39.768;2.722;2023-03-12T05:05:33;101430.09;;;15.83;77.77
54248;BME280;40161;39.768;2.722;2023-03-12T05:08:00;101441.38;;;15.63;79.42
54248;BME280;40161;39.768;2.722;2023-03-12T05:10:26;101446.84;;;15.53;80.05
54248;BME280;40161;39.768;2.722;2023-03-12T05:12:51;101448.34;;;15.47;80.94
54248;BME280;40161;39.768;2.722;2023-03-12T05:15:17;101413.25;;;15.10;81.96
54248;BME280;40161;39.768;2.722;2023-03-12T05:17:43;101408.66;;;15.25;81.75
54248;BME280;40161;39.768;2.722;2023-03-12T05:20:10;101446.41;;;15.51;80.83
54248;BME280;40161;39.768;2.722;2023-03-12T05:22:36;101469.00;;;15.56;80.64
54248;BME280;40161;39.768;2.722;2023-03-12T05:25:02;101454.38;;;15.56;80.48
54248;BME280;40161;39.768;2.722;2023-03-12T05:27:27;101461.47;;;15.57;80.28
54248;BME280;40161;39.768;2.722;2023-03-12T05:29:53;101470.81;;;15.41;80.78
54248;BME280;40161;39.768;2.722;2023-03-12T05:32:18;101459.66;;;15.31;82.40
54248;BME280;40161;39.768;2.722;2023-03-12T05:34:44;101463.69;;;15.40;81.81
54248;BME280;40161;39.768;2.722;2023-03-12T05:37:09;101422.91;;;14.89;82.17
54248;BME280;40161;39.768;2.722;2023-03-12T05:39:35;101450.91;;;15.22;81.79
54248;BME280;40161;39.768;2.722;2023-03-12T05:42:01;101464.53;;;15.04;83.45
54248;BME280;40161;39.768;2.722;2023-03-12T05:44:26;101478.41;;;15.07;83.93
54248;BME280;40161;39.768;2.722;2023-03-12T05:46:52;101463.41;;;15.08;84.13
54248;BME280;40161;39.768;2.722;2023-03-12T05:49:19;101474.75;;;15.00;84.30
54248;BME280;40161;39.768;2.722;2023-03-12T05:51:46;101488.78;;;15.17;84.65
54248;BME280;40161;39.768;2.722;2023-03-12T05:54:12;101483.56;;;15.12;83.65
54248;BME280;40161;39.768;2.722;2023-03-12T05:56:38;101493.03;;;15.11;84.94
54248;BME280;40161;39.768;2.722;2023-03-12T05:59:03;101478.91;;;15.20;83.79
54248;BME280;40161;39.768;2.722;2023-03-12T06:01:32;101489.66;;;15.29;83.96
54248;BME280;40161;39.768;2.722;2023-03-12T06:03:58;101484.91;;;15.26;83.47
54248;BME280;40161;39.768;2.722;2023-03-12T06:06:23;101451.63;;;15.15;83.93
54248;BME280;40161;39.768;2.722;2023-03-12T06:08:50;101444.91;;;15.16;82.76
54248;BME280;40161;39.768;2.722;2023-03-12T06:11:16;101427.00;;;15.03;83.55
54248;BME280;40161;39.768;2.722;2023-03-12T06:13:41;101477.84;;;15.32;83.58
54248;BME280;40161;39.768;2.722;2023-03-12T06:16:11;101491.06;;;15.12;85.10
54248;BME280;40161;39.768;2.722;2023-03-12T06:18:39;101472.50;;;15.12;86.02
54248;BME280;40161;39.768;2.722;2023-03-12T06:21:18;101473.09;;;15.29;85.23
54248;BME280;40161;39.768;2.722;2023-03-12T06:23:44;101446.91;;;15.19;84.13
54248;BME280;40161;39.768;2.722;2023-03-12T06:26:11;101469.59;;;15.35;83.97
54248;BME280;40161;39.768;2.722;2023-03-12T06:28:37;101465.22;;;15.34;84.13
54248;BME280;40161;39.768;2.722;2023-03-12T06:31:03;101485.81;;;15.40;84.32
54248;BME280;40161;39.768;2.722;2023-03-12T06:33:30;101480.59;;;15.28;84.90
54248;BME280;40161;39.768;2.722;2023-03-12T06:35:57;101471.53;;;15.31;84.89
54248;BME280;40161;39.768;2.722;2023-03-12T06:38:23;101470.09;;;15.07;85.14
54248;BME280;40161;39.768;2.722;2023-03-12T06:40:59;101498.53;;;15.08;86.57
54248;BME280;40161;39.768;2.722;2023-03-12T06:43:27;101489.69;;;14.95;87.44
54248;BME280;40161;39.768;2.722;2023-03-12T06:45:54;101489.06;;;15.09;87.99
54248;BME280;40161;39.768;2.722;2023-03-12T06:48:22;101488.81;;;15.21;86.97
54248;BME280;40161;39.768;2.722;2023-03-12T06:50:47;101479.56;;;15.06;86.00
54248;BME280;40161;39.768;2.722;2023-03-12T06:53:13;101503.75;;;15.16;86.74
54248;BME280;40161;39.768;2.722;2023-03-12T06:55:39;101501.88;;;15.28;86.70
54248;BME280;40161;39.768;2.722;2023-03-12T06:58:04;101510.28;;;15.35;85.64
54248;BME280;40161;39.768;2.722;2023-03-12T07:00:31;101504.25;;;15.26;86.15
54248;BME280;40161;39.768;2.722;2023-03-12T07:02:57;101512.16;;;15.27;86.83
54248;BME280;40161;39.768;2.722;2023-03-12T07:05:23;101505.75;;;15.19;86.40
54248;BME280;40161;39.768;2.722;2023-03-12T07:07:49;101520.31;;;15.13;87.58
54248;BME280;40161;39.768;2.722;2023-03-12T07:10:15;101516.34;;;15.14;88.25
54248;BME280;40161;39.768;2.722;2023-03-12T07:12:40;101522.34;;;15.19;87.42
54248;BME280;40161;39.768;2.722;2023-03-12T07:15:06;101530.19;;;15.14;89.04
54248;BME280;40161;39.768;2.722;2023-03-12T07:17:32;101518.72;;;15.12;88.81
54248;BME280;40161;39.768;2.722;2023-03-12T07:19:57;101512.84;;;15.17;88.52
54248;BME280;40161;39.768;2.722;2023-03-12T07:22:23;101539.84;;;15.31;88.21
54248;BME280;40161;39.768;2.722;2023-03-12T07:24:49;101538.34;;;15.37;87.76
54248;BME280;40161;39.768;2.722;2023-03-12T07:27:16;101541.84;;;15.34;88.82
54248;BME280;40161;39.768;2.722;2023-03-12T07:29:42;101529.13;;;15.26;89.62
54248;BME280;40161;39.768;2.722;2023-03-12T07:32:07;101536.13;;;15.16;89.45
54248;BME280;40161;39.768;2.722;2023-03-12T07:34:33;101535.38;;;15.19;89.46
54248;BME280;40161;39.768;2.722;2023-03-12T07:36:58;101542.56;;;15.27;89.73
54248;BME280;40161;39.768;2.722;2023-03-12T07:39:24;101515.97;;;15.12;89.28
54248;BME280;40161;39.768;2.722;2023-03-12T07:41:50;101556.97;;;15.43;89.24
54248;BME280;40161;39.768;2.722;2023-03-12T07:44:15;101563.44;;;15.58;88.74
54248;BME280;40161;39.768;2.722;2023-03-12T07:46:41;101549.16;;;15.49;88.83
54248;BME280;40161;39.768;2.722;2023-03-12T07:49:07;101550.00;;;15.57;89.20
54248;BME280;40161;39.768;2.722;2023-03-12T07:51:33;101548.56;;;15.66;88.86
54248;BME280;40161;39.768;2.722;2023-03-12T07:53:58;101554.09;;;15.66;88.54
54248;BME280;40161;39.768;2.722;2023-03-12T07:56:24;101560.44;;;15.71;88.23
54248;BME280;40161;39.768;2.722;2023-03-12T07:58:49;101570.81;;;15.81;88.10
54248;BME280;40161;39.768;2.722;2023-03-12T08:01:15;101536.94;;;15.54;88.88
54248;BME280;40161;39.768;2.722;2023-03-12T08:03:40;101562.84;;;15.76;88.63
54248;BME280;40161;39.768;2.722;2023-03-12T08:06:06;101565.16;;;15.66;88.98
54248;BME280;40161;39.768;2.722;2023-03-12T08:08:32;101562.41;;;15.70;88.73
54248;BME280;40161;39.768;2.722;2023-03-12T08:10:58;101595.81;;;15.92;88.50
54248;BME280;40161;39.768;2.722;2023-03-12T08:13:25;101572.88;;;15.91;87.98
54248;BME280;40161;39.768;2.722;2023-03-12T08:15:53;101582.50;;;16.04;88.05
54248;BME280;40161;39.768;2.722;2023-03-12T08:18:19;101587.31;;;16.11;87.85
54248;BME280;40161;39.768;2.722;2023-03-12T08:20:49;101595.66;;;16.18;88.01
54248;BME280;40161;39.768;2.722;2023-03-12T08:23:15;101584.63;;;16.22;88.02
54248;BME280;40161;39.768;2.722;2023-03-12T08:25:44;101589.75;;;16.23;88.38
54248;BME280;40161;39.768;2.722;2023-03-12T08:28:10;101607.69;;;16.40;88.80
54248;BME280;40161;39.768;2.722;2023-03-12T08:30:36;101590.72;;;16.42;89.10
54248;BME280;40161;39.768;2.722;2023-03-12T08:33:01;101592.34;;;16.50;89.03
54248;BME280;40161;39.768;2.722;2023-03-12T08:35:27;101586.81;;;16.53;88.47
54248;BME280;40161;39.768;2.722;2023-03-12T08:37:53;101585.25;;;16.56;88.31
54248;BME280;40161;39.768;2.722;2023-03-12T08:40:22;101589.59;;;16.53;89.32
54248;BME280;40161;39.768;2.722;2023-03-12T08:42:47;101588.00;;;16.52;89.82
54248;BME280;40161;39.768;2.722;2023-03-12T08:45:14;101564.50;;;16.32;89.96
54248;BME280;40161;39.768;2.722;2023-03-12T08:47:42;101607.50;;;16.67;89.74
54248;BME280;40161;39.768;2.722;2023-03-12T08:50:11;101600.38;;;16.69;89.91
54248;BME280;40161;39.768;2.722;2023-03-12T08:52:37;101615.47;;;16.75;88.86
54248;BME280;40161;39.768;2.722;2023-03-12T08:55:03;101597.69;;;16.76;88.93
54248;BME280;40161;39.768;2.722;2023-03-12T08:57:30;101597.31;;;16.85;88.90
54248;BME280;40161;39.768;2.722;2023-03-12T08:59:56;101577.50;;;16.76;87.19
54248;BME280;40161;39.768;2.722;2023-03-12T09:02:21;101591.41;;;16.90;85.74
54248;BME280;40161;39.768;2.722;2023-03-12T09:04:48;101596.63;;;17.02;85.06
54248;BME280;40161;39.768;2.722;2023-03-12T09:07:14;101590.72;;;17.11;84.53
54248;BME280;40161;39.768;2.722;2023-03-12T09:09:43;101587.16;;;17.14;82.93
54248;BME280;40161;39.768;2.722;2023-03-12T09:12:09;101591.19;;;17.31;79.41
54248;BME280;40161;39.768;2.722;2023-03-12T09:14:34;101582.50;;;17.43;75.82
54248;BME280;40161;39.768;2.722;2023-03-12T09:17:00;101596.44;;;17.68;74.38
54248;BME280;40161;39.768;2.722;2023-03-12T09:19:26;101591.69;;;17.69;74.68
54248;BME280;40161;39.768;2.722;2023-03-12T09:21:52;101603.22;;;17.78;73.17
54248;BME280;40161;39.768;2.722;2023-03-12T09:24:18;101595.72;;;17.96;71.50
54248;BME280;40161;39.768;2.722;2023-03-12T09:26:43;101586.19;;;17.97;70.96
54248;BME280;40161;39.768;2.722;2023-03-12T09:29:09;101584.19;;;18.01;70.63
54248;BME280;40161;39.768;2.722;2023-03-12T09:31:34;101583.41;;;18.08;71.02
54248;BME280;40161;39.768;2.722;2023-03-12T09:34:01;101588.19;;;18.04;70.30
54248;BME280;40161;39.768;2.722;2023-03-12T09:36:26;101608.81;;;18.14;70.30
54248;BME280;40161;39.768;2.722;2023-03-12T09:38:53;101580.63;;;18.08;70.10
54248;BME280;40161;39.768;2.722;2023-03-12T09:41:21;101590.16;;;18.25;69.70
54248;BME280;40161;39.768;2.722;2023-03-12T09:43:53;101590.94;;;18.36;68.77
54248;BME280;40161;39.768;2.722;2023-03-12T09:46:54;101590.53;;;18.45;68.98
54248;BME280;40161;39.768;2.722;2023-03-12T09:49:40;101588.56;;;18.45;68.27
54248;BME280;40161;39.768;2.722;2023-03-12T09:52:27;101587.75;;;18.56;67.25
54248;BME280;40161;39.768;2.722;2023-03-12T09:55:11;101584.53;;;18.64;66.99
54248;BME280;40161;39.768;2.722;2023-03-12T09:57:42;101576.63;;;18.59;66.59
54248;BME280;40161;39.768;2.722;2023-03-12T10:00:17;101567.84;;;18.75;66.32
54248;BME280;40161;39.768;2.722;2023-03-12T10:03:09;101578.97;;;18.86;65.68
54248;BME280;40161;39.768;2.722;2023-03-12T10:09:02;101589.25;;;18.96;65.15
54248;BME280;40161;39.768;2.722;2023-03-12T10:14:42;101581.25;;;19.05;63.56
54248;BME280;40161;39.768;2.722;2023-03-12T10:20:03;101557.81;;;19.03;63.65
54248;BME280;40161;39.768;2.722;2023-03-12T10:23:00;101581.63;;;19.14;62.88
54248;BME280;40161;39.768;2.722;2023-03-12T10:25:41;101571.28;;;19.15;63.03
54248;BME280;40161;39.768;2.722;2023-03-12T10:28:21;101574.47;;;19.13;64.04
54248;BME280;40161;39.768;2.722;2023-03-12T10:31:00;101575.56;;;19.30;63.33
54248;BME280;40161;39.768;2.722;2023-03-12T10:33:45;101577.97;;;19.32;63.18
54248;BME280;40161;39.768;2.722;2023-03-12T10:36:18;101571.94;;;19.40;62.50
54248;BME280;40161;39.768;2.722;2023-03-12T10:38:45;101561.22;;;19.39;62.55
54248;BME280;40161;39.768;2.722;2023-03-12T10:41:24;101570.72;;;19.49;62.30
54248;BME280;40161;39.768;2.722;2023-03-12T10:43:50;101567.88;;;19.56;62.06
54248;BME280;40161;39.768;2.722;2023-03-12T10:46:51;101583.75;;;19.62;61.83
54248;BME280;40161;39.768;2.722;2023-03-12T10:49:23;101580.13;;;19.73;61.23
54248;BME280;40161;39.768;2.722;2023-03-12T10:54:35;101575.75;;;19.68;61.50
54248;BME280;40161;39.768;2.722;2023-03-12T10:57:02;101570.63;;;19.66;61.44
54248;BME280;40161;39.768;2.722;2023-03-12T10:59:31;101537.63;;;19.65;60.52
54248;BME280;40161;39.768;2.722;2023-03-12T11:01:58;101577.63;;;19.89;60.64
54248;BME280;40161;39.768;2.722;2023-03-12T11:04:27;101578.41;;;19.89;59.71
54248;BME280;40161;39.768;2.722;2023-03-12T11:07:15;101567.31;;;19.86;61.30
54248;BME280;40161;39.768;2.722;2023-03-12T11:09:42;101568.44;;;19.92;60.25
54248;BME280;40161;39.768;2.722;2023-03-12T11:12:26;101588.69;;;20.00;60.80
54248;BME280;40161;39.768;2.722;2023-03-12T11:14:52;101575.06;;;20.09;60.23
54248;BME280;40161;39.768;2.722;2023-03-12T11:17:20;101583.09;;;20.03;59.50
54248;BME280;40161;39.768;2.722;2023-03-12T11:19:47;101571.97;;;20.00;59.68
54248;BME280;40161;39.768;2.722;2023-03-12T11:22:12;101569.56;;;20.02;60.07
54248;BME280;40161;39.768;2.722;2023-03-12T11:25:02;101568.59;;;20.19;59.71
54248;BME280;40161;39.768;2.722;2023-03-12T11:27:44;101538.53;;;20.00;59.20
54248;BME280;40161;39.768;2.722;2023-03-12T11:30:13;101569.44;;;20.16;58.90
54248;BME280;40161;39.768;2.722;2023-03-12T11:32:45;101573.47;;;20.08;59.10
54248;BME280;40161;39.768;2.722;2023-03-12T11:35:15;101553.25;;;20.00;59.94
54248;BME280;40161;39.768;2.722;2023-03-12T11:46:29;101529.75;;;20.01;59.34
54248;BME280;40161;39.768;2.722;2023-03-12T12:00:14;101560.94;;;20.30;58.31
54248;BME280;40161;39.768;2.722;2023-03-12T12:10:52;101544.91;;;20.42;58.92
54248;BME280;40161;39.768;2.722;2023-03-12T12:22:24;101494.75;;;20.00;57.51
54248;BME280;40161;39.768;2.722;2023-03-12T12:25:16;101540.97;;;20.35;58.48
54248;BME280;40161;39.768;2.722;2023-03-12T12:33:02;101554.81;;;20.46;58.09
54248;BME280;40161;39.768;2.722;2023-03-12T12:35:39;101538.41;;;20.55;58.15
54248;BME280;40161;39.768;2.722;2023-03-12T12:38:13;101511.00;;;20.47;57.78
54248;BME280;40161;39.768;2.722;2023-03-12T12:40:45;101531.59;;;20.60;57.12
54248;BME280;40161;39.768;2.722;2023-03-12T12:45:51;101550.31;;;20.59;57.56
54248;BME280;40161;39.768;2.722;2023-03-12T12:50:46;101541.25;;;20.52;57.66
54248;BME280;40161;39.768;2.722;2023-03-12T12:53:20;101537.19;;;20.56;57.30
54248;BME280;40161;39.768;2.722;2023-03-12T12:56:08;101543.00;;;20.73;57.58
54248;BME280;40161;39.768;2.722;2023-03-12T12:58:52;101548.44;;;20.83;57.13
54248;BME280;40161;39.768;2.722;2023-03-12T13:01:22;101513.78;;;20.47;56.99
54248;BME280;40161;39.768;2.722;2023-03-12T13:03:48;101530.50;;;20.50;57.26
54248;BME280;40161;39.768;2.722;2023-03-12T13:06:14;101544.88;;;20.45;57.77
54248;BME280;40161;39.768;2.722;2023-03-12T13:21:38;101540.31;;;20.24;58.71
54248;BME280;40161;39.768;2.722;2023-03-12T13:24:25;101550.31;;;20.18;58.53
54248;BME280;40161;39.768;2.722;2023-03-12T13:29:46;101541.19;;;20.14;59.39
54248;BME280;40161;39.768;2.722;2023-03-12T13:43:15;101488.78;;;19.98;58.92
54248;BME280;40161;39.768;2.722;2023-03-12T13:46:04;101503.41;;;20.09;59.53
54248;BME280;40161;39.768;2.722;2023-03-12T13:48:32;101493.53;;;20.01;59.67
54248;BME280;40161;39.768;2.722;2023-03-12T13:51:10;101527.97;;;20.22;59.34
54248;BME280;40161;39.768;2.722;2023-03-12T13:53:40;101528.81;;;20.19;59.19
54248;BME280;40161;39.768;2.722;2023-03-12T13:56:11;101516.56;;;20.09;58.87
54248;BME280;40161;39.768;2.722;2023-03-12T13:58:47;101516.97;;;20.07;59.32
54248;BME280;40161;39.768;2.722;2023-03-12T14:01:16;101486.03;;;19.95;58.64
54248;BME280;40161;39.768;2.722;2023-03-12T14:03:56;101522.78;;;20.24;59.20
54248;BME280;40161;39.768;2.722;2023-03-12T14:06:25;101522.44;;;20.18;58.95
54248;BME280;40161;39.768;2.722;2023-03-12T14:14:10;101512.16;;;20.11;59.41
54248;BME280;40161;39.768;2.722;2023-03-12T14:16:47;101508.94;;;20.17;58.97
54248;BME280;40161;39.768;2.722;2023-03-12T14:19:17;101466.97;;;19.93;59.14
54248;BME280;40161;39.768;2.722;2023-03-12T14:21:46;101502.91;;;20.22;59.10
54248;BME280;40161;39.768;2.722;2023-03-12T14:24:21;101499.69;;;20.23;59.56
54248;BME280;40161;39.768;2.722;2023-03-12T14:26:47;101500.59;;;20.13;59.33
54248;BME280;40161;39.768;2.722;2023-03-12T14:29:27;101474.44;;;20.03;59.15
54248;BME280;40161;39.768;2.722;2023-03-12T14:32:01;101519.94;;;20.31;58.83
54248;BME280;40161;39.768;2.722;2023-03-12T14:34:30;101509.09;;;20.36;58.20
54248;BME280;40161;39.768;2.722;2023-03-12T14:37:21;101480.59;;;20.22;58.72
54248;BME280;40161;39.768;2.722;2023-03-12T14:39:53;101473.03;;;20.22;58.04